Aviation Digital Data Service (ADDS)

Output produced by METARs form (0833 UTC 31 March 2015)
found at http://www.aviationweather.gov/adds/metars/
 
KJST 310754Z AUTO 31007KT 10SM BKN070 OVC085 02/M04 A2986 RMK AO2 SLP125 T00221044
KJST 310654Z AUTO 29010KT 10SM CLR 03/M05 A2988 RMK AO2 SLP130 T00331050
KJST 310554Z AUTO 28011G20KT 10SM CLR 04/M06 A2989 RMK AO2 SLP135 T00441056 10061 20044 51007
KJST 310454Z AUTO 28014G24KT 10SM SCT065 06/M05 A2989 RMK AO2 PK WND 26027/0420 SLP133 T00561050 400780000
KJST 310354Z AUTO 26016G27KT 10SM SCT070 06/M05 A2988 RMK AO2 PK WND 27027/0354 SLP131 T00611050
KJST 310254Z AUTO 27013G20KT 10SM SCT065 BKN080 06/M05 A2987 RMK AO2 SLP127 T00611050 50001
KJST 310154Z AUTO 26013G19KT 10SM BKN070 OVC085 06/M06 A2988 RMK AO2 SLP132 T00611056
KJST 310054Z AUTO 27010KT 10SM SCT065 OVC080 06/M06 A2988 RMK AO2 SLP132 T00611061
KJST 302354Z AUTO 26013G20KT 10SM BKN065 OVC085 06/M07 A2987 RMK AO2 SLP128 T00611067 10078 20061 51007
KJST 302254Z AUTO 27012G22KT 10SM BKN065 OVC080 06/M07 A2987 RMK AO2 PK WND 29029/2214 SLP128 T00611072
KJST 302154Z AUTO 28023G36KT 10SM OVC070 07/M07 A2986 RMK AO2 PK WND 27036/2152 SLP124 T00671072
KJST 302054Z AUTO 29015G26KT 10SM BKN065 06/M06 A2985 RMK AO2 PK WND 29029/2038 SLP122 T00611061 52001
KJST 301954Z AUTO 28019G29KT 10SM BKN055 OVC070 07/M05 A2985 RMK AO2 PK WND 29031/1900 SLP120 T00671050
KJST 301854Z AUTO 27014G30KT 10SM FEW046 OVC055 07/M04 A2985 RMK AO2 PK WND 27032/1804 SLP121 T00671044
KJST 301754Z AUTO 28017G26KT 10SM SCT042 OVC055 06/M03 A2984 RMK AO2 PK WND 27029/1707 SLP121 T00611033 10061 20022 58000
KJST 301654Z AUTO 28013G20KT 10SM BKN037 BKN043 OVC050 05/M03 A2984 RMK AO2 SLP122 T00501033
KJST 301554Z AUTO 26013G25KT 10SM OVC035 04/M03 A2985 RMK AO2 PK WND 26029/1502 SLP122 T00391033
KJST 301517Z AUTO 28016KT 10SM SCT028 OVC038 05/M03 A2985 RMK AO2 PK WND 26029/1502 T00501033
KJST 301454Z AUTO 27015G30KT 10SM BKN027 OVC034 04/M02 A2985 RMK AO2 PK WND 26034/1429 SLP121 T00441022 53006
KJST 301445Z AUTO 27019G28KT 10SM BKN027 BKN036 OVC044 03/M03 A2984 RMK AO2 PK WND 26034/1429 T00331028
KJST 301419Z AUTO 29019G27KT 10SM SCT023 BKN033 OVC043 04/M01 A2984 RMK AO2 PK WND 27031/1359 T00391011
KJST 301354Z AUTO 28016G27KT 10SM BKN020 BKN026 OVC045 03/M01 A2983 RMK AO2 PK WND 28027/1350 SLP117 T00331011
KJST 301326Z AUTO 28015G24KT 10SM SCT013 BKN019 OVC043 03/M01 A2984 RMK AO2 T00281006
KJST 301254Z AUTO 26016G24KT 10SM BKN012 OVC018 03/01 A2982 RMK AO2 PK WND 27026/1230 SLP116 T00280006
KJST 301250Z AUTO 27015G24KT 10SM BKN012 OVC018 03/00 A2982 RMK AO2 PK WND 27026/1230
KJST 301243Z AUTO 27013G24KT 10SM SCT010 OVC015 03/00 A2982 RMK AO2 PK WND 27026/1230 T00280000
KJST 301154Z AUTO 25014KT 10SM OVC005 02/01 A2980 RMK AO2 RAE35 CIG 004V009 SLP109 P0000 60000 T00220011 10028 20000 53007
KJST 301054Z AUTO 24013G24KT 4SM -RA BR BKN007 OVC010 02/01 A2978 RMK AO2 RAB46 CIG 006V010 SLP101 P0000 T00220006
KJST 301024Z AUTO 24015G22KT 10SM OVC014 03/M01 A2977 RMK AO2 T00281006
KJST 300954Z AUTO 25013G21KT 10SM OVC018 02/M01 A2976 RMK AO2 RAE06 SLP094 P0000 T00221011
KJST 300854Z AUTO 21011KT 9SM -RA OVC026 02/M02 A2978 RMK AO2 RAB54 SLP100 P0000 60000 T00171017 56033
KJST 300754Z AUTO 23013KT 10SM OVC027 02/M02 A2980 RMK AO2 SLP108 T00171017
KJST 300717Z AUTO 20008KT 10SM BKN024 OVC032 01/M02 A2983 RMK AO2 T00111017
KJST 300654Z AUTO 20009KT 10SM FEW004 OVC034 01/M01 A2984 RMK AO2 SNE27 PRESFR SLP125 P0000 T00061011
KJST 300639Z AUTO 20009KT 10SM SCT007 SCT029 OVC034 00/M01 A2986 RMK AO2 SNE27 P0000 T00001011
KJST 300627Z AUTO 21009KT 7SM SCT007 BKN013 OVC035 00/M01 A2987 RMK AO2 SNE27 P0000 T00001011
KJST 300617Z AUTO 21009KT 2SM -SN BR SCT008 OVC015 00/M01 A2988 RMK AO2 P0000 T00001011
KJST 300614Z AUTO 22008KT 1 3/4SM -SN BR FEW008 BKN013 OVC019 00/M01 A2989 RMK AO2 P0000 T00001011
KJST 300607Z AUTO 22010KT 1 1/2SM -SN BR BKN013 OVC031 00/M01 A2989 RMK AO2 P0000 T00001011
KJST 300601Z AUTO 22011G22KT 1 1/2SM -SN BR FEW010 SCT015 OVC033 01/M02 A2989 RMK AO2 P0000 T00061017
KJST 300554Z AUTO 22016G22KT 2SM -SN OVC033 01/M02 A2989 RMK AO2 SNB31 SLP141 P0000 60000 T00111017 10033 20000 55017
KJST 300454Z AUTO 20004KT 10SM BKN041 BKN060 OVC075 00/M02 A2989 RMK AO2 PK WND 21029/0401 SNB04E45 PRESFR SLP143 P0000 T00001017 400501111
KJST 300438Z AUTO 23005KT 3SM -SN BR OVC031 00/M02 A2991 RMK AO2 PK WND 21029/0401 SNB04 PRESFR P0000 T00001022
KJST 300428Z AUTO 24009KT 1SM -SN VV016 01/M03 A2993 RMK AO2 PK WND 21029/0401 SNB04 P0000 T00061028
KJST 300410Z AUTO 25016G29KT 2 1/2SM -SN BKN029 OVC043 02/M04 A2995 RMK AO2 PK WND 21029/0401 SNB04 P0000 T00171039
KJST 300354Z AUTO 22013G19KT 10SM SCT046 OVC055 03/M13 A2993 RMK AO2 SLP158 T00331128
KJST 300254Z AUTO 19007KT 10SM SCT065 BKN080 OVC090 03/M14 A2994 RMK AO2 SLP162 T00281139 56021
KJST 300154Z AUTO 18011KT 10SM BKN090 OVC110 03/M13 A2997 RMK AO2 SLP172 T00331133
KJST 300054Z AUTO 17011KT 10SM CLR 02/M13 A2997 RMK AO2 SLP177 T00221128
KJST 292354Z AUTO 21006KT 10SM CLR 03/M14 A3001 RMK AO2 SLP190 T00281139 10050 20011 56027
KJST 292254Z AUTO 21006KT 10SM CLR 03/M14 A3002 RMK AO2 SLP194 T00331139
KJST 292154Z AUTO 20009KT 10SM CLR 04/M13 A3005 RMK AO2 SLP205 T00391133
KJST 292054Z AUTO 25007KT 10SM CLR 05/M12 A3009 RMK AO2 SLP218 T00501117 58033